createdAt,value
2023-01-13T00:00:34.512Z,71.44
2023-01-13T00:01:38.005Z,71.50
2023-01-13T00:02:41.023Z,71.60
2023-01-13T00:03:44.368Z,71.55
2023-01-13T00:04:47.556Z,71.52
2023-01-13T00:05:50.986Z,71.53
2023-01-13T00:06:54.065Z,71.56
2023-01-13T00:07:57.030Z,71.55
2023-01-13T00:08:59.993Z,71.54
2023-01-13T00:10:03.234Z,71.55
2023-01-13T00:11:06.427Z,71.53
2023-01-13T00:12:09.459Z,71.58
2023-01-13T00:13:12.699Z,71.54
2023-01-13T00:14:15.668Z,71.57
2023-01-13T00:15:18.819Z,71.69
2023-01-13T00:16:22.038Z,71.58
2023-01-13T00:17:25.062Z,71.64
2023-01-13T00:18:28.533Z,71.64
2023-01-13T00:19:31.624Z,71.66
2023-01-13T00:20:34.745Z,71.51
2023-01-13T00:21:37.945Z,71.62
2023-01-13T00:22:40.951Z,71.63
2023-01-13T00:23:44.753Z,71.56
2023-01-13T00:24:47.709Z,71.52
2023-01-13T00:25:50.818Z,71.64
2023-01-13T00:26:54.304Z,71.56
2023-01-13T00:27:57.381Z,71.54
2023-01-13T00:29:00.505Z,71.52
2023-01-13T00:30:04.335Z,71.46
2023-01-13T00:31:11.064Z,71.47
2023-01-13T00:32:14.270Z,71.56
2023-01-13T00:33:17.157Z,71.37
2023-01-13T00:34:20.286Z,71.34
2023-01-13T00:35:23.500Z,71.44
2023-01-13T00:36:28.203Z,71.28
2023-01-13T00:37:31.181Z,71.18
2023-01-13T00:38:35.348Z,71.16
2023-01-13T00:39:38.453Z,71.13
2023-01-13T00:40:41.733Z,71.12
2023-01-13T00:42:03.158Z,71.21
2023-01-13T00:43:24.531Z,71.01
2023-01-13T00:44:27.635Z,71.06
2023-01-13T00:45:30.658Z,70.97
2023-01-13T00:46:33.954Z,70.94
2023-01-13T00:47:36.968Z,71.07
2023-01-13T00:48:40.060Z,70.97
2023-01-13T00:49:43.053Z,70.95
2023-01-13T00:50:46.228Z,71.05
2023-01-13T00:51:49.626Z,70.92
2023-01-13T00:52:52.621Z,70.91
2023-01-13T00:53:55.645Z,70.89
2023-01-13T00:54:58.659Z,71.00
2023-01-13T00:56:07.565Z,71.01
2023-01-13T00:57:10.570Z,70.90
2023-01-13T00:58:13.518Z,70.86
2023-01-13T00:59:16.605Z,70.83
2023-01-13T01:00:19.983Z,70.81
2023-01-13T01:01:23.856Z,70.87
2023-01-13T01:02:26.902Z,70.75
2023-01-13T01:03:30.355Z,70.89
2023-01-13T01:04:33.453Z,70.93
2023-01-13T01:05:36.426Z,70.90
2023-01-13T01:06:39.684Z,70.80
2023-01-13T01:07:43.074Z,70.81
2023-01-13T01:08:46.144Z,70.81
2023-01-13T01:09:49.644Z,70.93
2023-01-13T01:11:02.680Z,70.97
2023-01-13T01:12:06.023Z,71.01
2023-01-13T01:13:10.884Z,70.86
2023-01-13T01:14:13.971Z,70.97
2023-01-13T01:15:17.244Z,70.89
2023-01-13T01:16:23.601Z,70.91
2023-01-13T01:17:27.710Z,70.98
2023-01-13T01:18:30.788Z,71.09
2023-01-13T01:19:35.876Z,71.00
2023-01-13T01:20:38.995Z,71.08
2023-01-13T01:21:42.091Z,71.08
2023-01-13T01:22:45.091Z,70.95
2023-01-13T01:23:47.951Z,71.07
2023-01-13T01:24:50.924Z,70.97
2023-01-13T01:25:53.979Z,70.94
2023-01-13T01:26:57.080Z,71.04
2023-01-13T01:28:00.062Z,70.97
2023-01-13T01:29:03.041Z,71.06
2023-01-13T01:30:07.624Z,71.08
2023-01-13T01:31:13.966Z,70.96
2023-01-13T01:32:17.103Z,70.99
2023-01-13T01:33:20.271Z,70.99
2023-01-13T01:34:23.244Z,71.10
2023-01-13T01:35:26.224Z,71.02
2023-01-13T01:36:29.810Z,71.06
2023-01-13T01:37:32.933Z,71.07
2023-01-13T01:38:35.933Z,71.19
2023-01-13T01:39:38.991Z,71.22
2023-01-13T01:40:42.123Z,71.11
2023-01-13T01:41:46.973Z,71.10
2023-01-13T01:43:08.558Z,71.13
2023-01-13T01:44:43.794Z,71.23
2023-01-13T01:45:46.859Z,71.23
2023-01-13T01:46:50.235Z,71.17
2023-01-13T01:47:59.632Z,71.19
2023-01-13T01:49:21.330Z,71.22
2023-01-13T01:50:24.733Z,71.37
2023-01-13T01:51:31.033Z,71.29
2023-01-13T01:52:37.807Z,71.27
2023-01-13T01:53:41.394Z,71.35
2023-01-13T01:54:50.727Z,71.25
2023-01-13T01:55:54.876Z,71.22
2023-01-13T01:56:58.340Z,71.32
2023-01-13T01:58:06.047Z,71.41
2023-01-13T01:59:09.537Z,71.41
2023-01-13T02:00:13.698Z,71.20
2023-01-13T02:01:17.711Z,71.23
2023-01-13T02:02:21.814Z,71.28
2023-01-13T02:03:25.064Z,71.26
2023-01-13T02:04:31.583Z,71.21
2023-01-13T02:05:34.877Z,71.34
2023-01-13T02:06:38.991Z,71.26
2023-01-13T02:07:43.968Z,71.38
2023-01-13T02:08:47.487Z,71.30
2023-01-13T02:09:52.598Z,71.47
2023-01-13T02:10:55.571Z,71.34
2023-01-13T02:12:16.931Z,71.49
2023-01-13T02:13:22.318Z,71.36
2023-01-13T02:14:28.025Z,71.36
2023-01-13T02:15:55.996Z,71.35
2023-01-13T02:17:05.332Z,71.45
2023-01-13T02:18:24.042Z,71.31
2023-01-13T02:19:30.534Z,71.49
2023-01-13T02:20:52.453Z,71.40
2023-01-13T02:22:02.065Z,71.58
2023-01-13T02:23:36.377Z,71.54
2023-01-13T02:24:54.955Z,71.44
2023-01-13T02:26:13.843Z,71.48
2023-01-13T02:27:20.453Z,71.49
2023-01-13T02:28:45.629Z,71.50
2023-01-13T02:30:19.763Z,71.61
2023-01-13T02:31:41.710Z,71.52
2023-01-13T02:33:19.498Z,71.56
2023-01-13T02:34:34.936Z,71.65
2023-01-13T02:35:53.305Z,71.66
2023-01-13T02:37:00.083Z,71.61
2023-01-13T02:38:05.529Z,71.67
2023-01-13T02:39:12.297Z,71.81
2023-01-13T02:40:19.168Z,71.78
2023-01-13T02:43:18.083Z,71.76
2023-01-13T02:44:24.803Z,71.74
2023-01-13T02:45:34.392Z,71.81
2023-01-13T02:46:47.230Z,71.73
2023-01-13T02:47:53.617Z,71.87
2023-01-13T02:49:00.152Z,71.81
2023-01-13T02:50:06.878Z,71.69
2023-01-13T02:51:19.452Z,71.72
2023-01-13T02:52:38.152Z,71.81
2023-01-13T02:53:50.749Z,71.87
2023-01-13T02:54:57.537Z,71.78
2023-01-13T02:56:03.224Z,71.93
2023-01-13T02:57:08.781Z,71.95
2023-01-13T02:58:15.366Z,71.92
2023-01-13T02:59:20.360Z,72.03
2023-01-13T03:00:23.855Z,71.93
2023-01-13T03:01:27.241Z,71.97
2023-01-13T03:02:30.347Z,72.11
2023-01-13T03:03:33.300Z,72.03
2023-01-13T03:04:48.389Z,72.20
2023-01-13T03:05:57.597Z,72.17
2023-01-13T03:07:07.249Z,72.11
2023-01-13T03:08:22.445Z,72.16
2023-01-13T03:09:31.937Z,72.20
2023-01-13T03:10:49.818Z,72.24
2023-01-13T03:12:17.375Z,72.39
2023-01-13T03:13:41.878Z,72.35
2023-01-13T03:14:51.517Z,72.51
2023-01-13T03:16:06.704Z,72.62
2023-01-13T03:17:14.323Z,72.57
2023-01-13T03:20:00.244Z,72.80
2023-01-13T03:21:21.412Z,72.78
2023-01-13T03:22:33.860Z,72.85
2023-01-13T03:23:43.328Z,72.81
2023-01-13T03:24:55.753Z,72.86
2023-01-13T03:26:11.358Z,72.87
2023-01-13T03:27:26.933Z,72.95
2023-01-13T03:28:33.534Z,72.93
2023-01-13T03:29:52.191Z,72.90
2023-01-13T03:30:58.898Z,73.03
2023-01-13T03:32:23.652Z,73.01
2023-01-13T03:33:33.377Z,73.07
2023-01-13T03:34:54.582Z,73.09
2023-01-13T03:36:01.160Z,73.12
2023-01-13T03:37:07.785Z,73.02
2023-01-13T03:38:17.469Z,73.02
2023-01-13T03:39:24.211Z,72.99
2023-01-13T03:40:31.194Z,73.08
2023-01-13T03:41:40.956Z,72.98
2023-01-13T03:42:49.410Z,72.96
2023-01-13T03:45:24.664Z,73.05
2023-01-13T03:47:01.087Z,73.02
2023-01-13T03:49:21.321Z,73.07
2023-01-13T03:50:27.946Z,73.18
2023-01-13T03:51:33.249Z,73.10
2023-01-13T03:52:39.505Z,73.24
2023-01-13T03:53:51.842Z,73.18
2023-01-13T03:54:58.402Z,73.28
2023-01-13T03:56:10.665Z,73.14
2023-01-13T03:57:17.189Z,73.06
2023-01-13T03:58:33.038Z,73.15
2023-01-13T03:59:39.762Z,73.15
2023-01-13T04:00:49.477Z,73.08
2023-01-13T04:01:56.217Z,73.10
2023-01-13T04:03:02.724Z,73.12
2023-01-13T04:04:09.294Z,73.14
2023-01-13T04:05:13.451Z,72.98
2023-01-13T04:06:23.237Z,72.95
2023-01-13T04:07:38.588Z,73.05
2023-01-13T04:08:51.241Z,72.95
2023-01-13T04:09:57.081Z,72.93
2023-01-13T04:11:12.547Z,72.93
2023-01-13T04:12:58.255Z,73.01
2023-01-13T04:14:03.412Z,72.92
2023-01-13T04:15:07.286Z,73.05
2023-01-13T04:16:11.599Z,73.00
2023-01-13T04:17:15.914Z,72.89
2023-01-13T04:19:33.436Z,73.00
2023-01-13T04:20:36.460Z,72.89
2023-01-13T04:21:39.498Z,72.88
2023-01-13T04:22:42.520Z,73.04
2023-01-13T04:23:45.497Z,72.93
2023-01-13T04:24:48.550Z,72.91
2023-01-13T04:25:51.603Z,73.00
2023-01-13T04:26:55.964Z,72.96
2023-01-13T04:27:58.887Z,72.87
2023-01-13T04:29:01.721Z,72.99
2023-01-13T04:30:06.117Z,72.85
2023-01-13T04:31:09.369Z,72.97
2023-01-13T04:32:12.421Z,72.88
2023-01-13T04:33:17.348Z,72.86
2023-01-13T04:34:20.323Z,72.92
2023-01-13T04:35:23.363Z,72.83
2023-01-13T04:36:29.259Z,72.90
2023-01-13T04:37:32.142Z,72.87
2023-01-13T04:38:35.109Z,72.71
2023-01-13T04:39:38.032Z,72.79
2023-01-13T04:40:42.187Z,72.67
2023-01-13T04:42:01.840Z,72.65
2023-01-13T04:43:05.190Z,72.74
2023-01-13T04:44:08.309Z,72.74
2023-01-13T04:45:11.382Z,72.57
2023-01-13T04:46:14.881Z,72.57
2023-01-13T04:47:17.745Z,72.65
2023-01-13T04:48:20.756Z,72.61
2023-01-13T04:49:23.810Z,72.55
2023-01-13T04:50:26.849Z,72.55
2023-01-13T04:51:29.799Z,72.47
2023-01-13T04:52:32.812Z,72.46
2023-01-13T04:53:35.874Z,72.56
2023-01-13T04:54:38.795Z,72.39
2023-01-13T04:55:41.919Z,72.44
2023-01-13T04:56:45.595Z,72.44
2023-01-13T04:57:48.653Z,72.51
2023-01-13T04:58:51.603Z,72.50
2023-01-13T04:59:54.848Z,72.36
2023-01-13T05:00:59.677Z,72.36
2023-01-13T05:02:02.641Z,72.41
2023-01-13T05:03:05.968Z,72.37
2023-01-13T05:04:10.825Z,72.28
2023-01-13T05:05:13.908Z,72.29
2023-01-13T05:06:17.062Z,72.30
2023-01-13T05:07:20.008Z,72.27
2023-01-13T05:08:22.843Z,72.14
2023-01-13T05:09:25.905Z,72.10
2023-01-13T05:10:28.977Z,72.22
2023-01-13T05:11:50.993Z,72.23
2023-01-13T05:13:12.358Z,72.21
2023-01-13T05:14:33.697Z,72.08
2023-01-13T05:15:57.076Z,72.17
2023-01-13T05:17:00.600Z,72.21
2023-01-13T05:18:03.783Z,72.23
2023-01-13T05:19:06.925Z,72.23
2023-01-13T05:20:12.182Z,72.22
2023-01-13T05:21:33.789Z,72.07
2023-01-13T05:22:54.982Z,72.05
2023-01-13T05:24:16.328Z,72.08
2023-01-13T05:25:22.332Z,72.07
2023-01-13T05:26:25.560Z,72.18
2023-01-13T05:27:29.380Z,72.17
2023-01-13T05:28:34.180Z,72.21
2023-01-13T05:29:37.227Z,72.11
2023-01-13T05:30:42.963Z,72.21
2023-01-13T05:31:46.038Z,72.19
2023-01-13T05:32:49.305Z,72.06
2023-01-13T05:33:52.297Z,72.04
2023-01-13T05:34:55.975Z,71.97
2023-01-13T05:36:01.783Z,72.08
2023-01-13T05:37:06.838Z,72.05
2023-01-13T05:38:10.104Z,71.95
2023-01-13T05:39:13.199Z,72.06
2023-01-13T05:40:36.808Z,72.03
2023-01-13T05:41:58.134Z,71.98
2023-01-13T05:43:19.601Z,71.91
2023-01-13T05:44:22.570Z,71.77
2023-01-13T05:45:25.799Z,71.94
2023-01-13T05:46:29.117Z,71.85
2023-01-13T05:47:32.435Z,71.90
2023-01-13T05:48:38.086Z,71.82
2023-01-13T05:49:42.297Z,71.79
2023-01-13T05:50:46.980Z,71.80
2023-01-13T05:51:50.102Z,71.71
2023-01-13T05:52:53.238Z,71.86
2023-01-13T05:53:56.248Z,71.75
2023-01-13T05:54:59.187Z,71.71
2023-01-13T05:56:05.859Z,71.80
2023-01-13T05:57:08.825Z,71.69
2023-01-13T05:58:14.353Z,71.69
2023-01-13T05:59:17.436Z,71.69
2023-01-13T06:00:20.883Z,71.78
2023-01-13T06:01:23.932Z,71.75
2023-01-13T06:02:27.185Z,71.60
2023-01-13T06:03:30.543Z,71.60
2023-01-13T06:04:33.601Z,71.58
2023-01-13T06:05:37.244Z,71.56
2023-01-13T06:06:40.277Z,71.60
2023-01-13T06:07:43.366Z,71.54
2023-01-13T06:08:46.430Z,71.54
2023-01-13T06:09:49.365Z,71.53
2023-01-13T06:10:52.602Z,71.48
2023-01-13T06:11:55.556Z,71.51
2023-01-13T06:12:58.641Z,71.45
2023-01-13T06:14:01.729Z,71.42
2023-01-13T06:15:05.542Z,71.43
2023-01-13T06:16:09.139Z,71.45
2023-01-13T06:17:14.552Z,71.49
2023-01-13T06:18:17.738Z,71.56
2023-01-13T06:19:20.613Z,71.47
2023-01-13T06:20:24.742Z,71.62
2023-01-13T06:21:27.713Z,71.62
2023-01-13T06:22:32.374Z,71.57
2023-01-13T06:23:37.123Z,71.46
2023-01-13T06:24:40.306Z,71.46
2023-01-13T06:26:18.345Z,71.52
2023-01-13T06:27:22.653Z,71.51
2023-01-13T06:28:25.760Z,71.44
2023-01-13T06:29:28.745Z,71.43
2023-01-13T06:30:38.354Z,71.43
2023-01-13T06:31:41.507Z,71.44
2023-01-13T06:32:47.664Z,71.53
2023-01-13T06:33:53.895Z,71.47
2023-01-13T06:35:00.403Z,71.39
2023-01-13T06:36:07.128Z,71.37
2023-01-13T06:37:14.151Z,71.53
2023-01-13T06:38:19.170Z,71.57
2023-01-13T06:39:26.954Z,71.57
2023-01-13T06:40:30.225Z,71.53
2023-01-13T06:41:52.018Z,71.43
2023-01-13T06:43:16.370Z,71.38
2023-01-13T06:44:20.803Z,71.41
2023-01-13T06:45:26.542Z,71.44
2023-01-13T06:46:29.750Z,71.42
2023-01-13T06:47:32.713Z,71.46
2023-01-13T06:48:36.026Z,71.54
2023-01-13T06:49:39.026Z,71.40
2023-01-13T06:50:42.409Z,71.54
2023-01-13T06:51:46.025Z,71.36
2023-01-13T06:52:49.142Z,71.42
2023-01-13T06:53:52.191Z,71.30
2023-01-13T06:54:55.463Z,71.40
2023-01-13T06:55:58.698Z,71.32
2023-01-13T06:57:02.370Z,71.41
2023-01-13T06:58:05.721Z,71.38
2023-01-13T06:59:08.748Z,71.32
2023-01-13T07:00:13.079Z,71.37
2023-01-13T07:01:16.246Z,71.25
2023-01-13T07:02:19.507Z,71.31
2023-01-13T07:03:22.836Z,71.24
2023-01-13T07:04:26.036Z,71.20
2023-01-13T07:05:29.211Z,71.13
2023-01-13T07:06:32.238Z,71.14
2023-01-13T07:07:35.280Z,71.06
2023-01-13T07:08:38.419Z,71.02
2023-01-13T07:09:41.471Z,71.05
2023-01-13T07:10:44.616Z,71.14
2023-01-13T07:11:47.677Z,71.19
2023-01-13T07:13:09.097Z,71.07
2023-01-13T07:14:30.135Z,71.15
2023-01-13T07:15:33.653Z,71.03
2023-01-13T07:16:36.850Z,71.10
2023-01-13T07:17:40.126Z,71.15
2023-01-13T07:18:42.983Z,71.14
2023-01-13T07:19:46.040Z,71.18
2023-01-13T07:20:56.913Z,71.12
2023-01-13T07:22:00.023Z,71.15
2023-01-13T07:23:03.084Z,71.01
2023-01-13T07:24:06.473Z,70.89
2023-01-13T07:27:39.605Z,70.95
2023-01-13T07:28:42.698Z,71.06
2023-01-13T07:29:45.565Z,71.25
2023-01-13T07:30:48.554Z,71.24
2023-01-13T07:31:51.713Z,71.27
2023-01-13T07:32:55.755Z,71.12
2023-01-13T07:33:58.733Z,71.15
2023-01-13T07:35:03.627Z,71.22
2023-01-13T07:36:07.587Z,71.04
2023-01-13T07:37:10.542Z,71.14
2023-01-13T07:38:13.890Z,71.09
2023-01-13T07:39:17.069Z,71.05
2023-01-13T07:40:20.289Z,71.02
2023-01-13T07:41:41.716Z,71.00
2023-01-13T07:43:03.260Z,71.02
2023-01-13T07:44:07.707Z,71.00
2023-01-13T07:45:12.383Z,71.05
2023-01-13T07:46:15.928Z,70.99
2023-01-13T07:47:20.817Z,70.78
2023-01-13T07:48:24.026Z,70.86
2023-01-13T07:49:27.112Z,70.74
2023-01-13T07:50:30.151Z,70.80
2023-01-13T07:51:35.328Z,70.62
2023-01-13T07:52:38.292Z,70.63
2023-01-13T07:53:41.311Z,70.73
2023-01-13T07:54:44.300Z,70.61
2023-01-13T07:55:47.299Z,70.54
2023-01-13T07:56:50.376Z,70.45
2023-01-13T07:57:53.428Z,70.57
2023-01-13T07:59:01.347Z,70.46
2023-01-13T08:00:05.187Z,70.48
2023-01-13T08:01:13.127Z,70.55
2023-01-13T08:02:16.528Z,70.37
2023-01-13T08:03:19.476Z,70.48
2023-01-13T08:04:22.565Z,70.40
2023-01-13T08:05:25.529Z,70.27
2023-01-13T08:06:29.023Z,70.32
2023-01-13T08:07:32.179Z,70.16
2023-01-13T08:08:35.730Z,70.24
2023-01-13T08:09:38.805Z,70.28
2023-01-13T08:10:42.011Z,70.27
2023-01-13T08:11:46.736Z,70.29
2023-01-13T08:13:07.976Z,70.17
2023-01-13T08:14:11.067Z,70.17
2023-01-13T08:15:14.168Z,70.17
2023-01-13T08:16:17.611Z,70.02
2023-01-13T08:17:20.810Z,70.02
2023-01-13T08:18:24.075Z,70.01
2023-01-13T08:19:27.136Z,69.98
2023-01-13T08:20:30.195Z,70.01
2023-01-13T08:21:33.413Z,69.99
2023-01-13T08:22:36.588Z,70.00
2023-01-13T08:23:41.162Z,69.98
2023-01-13T08:24:44.260Z,70.00
2023-01-13T08:25:47.379Z,69.90
2023-01-13T08:26:50.585Z,69.78
2023-01-13T08:27:53.731Z,69.82
2023-01-13T08:28:56.685Z,69.83
2023-01-13T08:30:00.179Z,69.81
2023-01-13T08:31:06.054Z,69.67
2023-01-13T08:32:09.060Z,69.56
2023-01-13T08:33:12.635Z,69.51
2023-01-13T08:34:15.750Z,69.50
2023-01-13T08:35:19.499Z,69.50
2023-01-13T08:36:24.395Z,69.50
2023-01-13T08:37:27.489Z,69.56
2023-01-13T08:38:30.471Z,69.62
2023-01-13T08:39:33.571Z,69.50
2023-01-13T08:40:38.381Z,69.57
2023-01-13T08:41:54.952Z,69.46
2023-01-13T08:42:58.518Z,69.18
2023-01-13T08:44:02.219Z,69.11
2023-01-13T08:45:06.674Z,69.00
2023-01-13T08:46:10.393Z,69.09
2023-01-13T08:47:13.419Z,68.98
2023-01-13T08:48:16.362Z,68.98
2023-01-13T08:49:19.650Z,69.06
2023-01-13T08:50:22.829Z,68.99
2023-01-13T08:51:26.116Z,68.90
2023-01-13T08:52:29.393Z,68.98
2023-01-13T08:53:32.442Z,69.11
2023-01-13T08:54:37.294Z,69.11
2023-01-13T08:55:40.514Z,69.11
2023-01-13T08:56:44.694Z,69.05
2023-01-13T08:57:47.782Z,68.88
2023-01-13T08:58:50.888Z,68.89
2023-01-13T08:59:53.936Z,68.91
2023-01-13T09:00:57.215Z,69.03
2023-01-13T09:02:00.809Z,68.96
2023-01-13T09:03:04.606Z,68.92
2023-01-13T09:04:17.154Z,68.83
2023-01-13T09:05:20.157Z,68.86
2023-01-13T09:06:23.226Z,68.86
2023-01-13T09:07:26.275Z,68.99
2023-01-13T09:08:29.333Z,68.90
2023-01-13T09:09:32.552Z,68.86
2023-01-13T09:10:36.224Z,68.80
2023-01-13T09:12:02.862Z,68.93
2023-01-13T09:13:11.622Z,68.90
2023-01-13T09:14:19.318Z,68.75
2023-01-13T09:15:22.474Z,68.75
2023-01-13T09:16:25.520Z,68.85
2023-01-13T09:17:28.617Z,68.71
2023-01-13T09:18:31.807Z,68.61
2023-01-13T09:19:35.180Z,68.60
2023-01-13T09:20:38.437Z,68.73
2023-01-13T09:21:41.472Z,68.64
2023-01-13T09:22:44.569Z,68.70
2023-01-13T09:23:47.635Z,68.68
2023-01-13T09:24:50.581Z,68.69
2023-01-13T09:25:53.736Z,68.63
2023-01-13T09:26:56.983Z,68.53
2023-01-13T09:28:00.143Z,68.58
2023-01-13T09:29:03.486Z,68.72
2023-01-13T09:30:09.161Z,68.63
2023-01-13T09:31:12.207Z,68.64
2023-01-13T09:32:15.368Z,68.80
2023-01-13T09:33:36.702Z,68.74
2023-01-13T09:34:58.068Z,68.66
2023-01-13T09:36:01.247Z,68.69
2023-01-13T09:37:06.493Z,68.70
2023-01-13T09:38:09.698Z,68.71
2023-01-13T09:39:12.998Z,68.73
2023-01-13T09:40:19.671Z,68.72
2023-01-13T09:41:43.234Z,68.61
2023-01-13T09:43:11.348Z,68.64
2023-01-13T09:44:17.891Z,68.60
2023-01-13T09:45:31.524Z,68.59
2023-01-13T09:46:53.206Z,68.67
2023-01-13T09:48:14.954Z,68.61
2023-01-13T09:49:30.184Z,68.58
2023-01-13T09:50:51.773Z,68.56
2023-01-13T09:52:07.657Z,68.60
2023-01-13T09:53:14.430Z,68.59
2023-01-13T09:55:37.877Z,68.56
2023-01-13T09:56:40.829Z,68.41
2023-01-13T09:57:43.907Z,68.44
2023-01-13T09:58:47.622Z,68.48
2023-01-13T09:59:50.567Z,68.47
2023-01-13T10:01:17.505Z,68.45
2023-01-13T10:02:26.958Z,68.38
2023-01-13T10:03:32.509Z,68.46
2023-01-13T10:04:35.717Z,68.33
2023-01-13T10:05:49.856Z,68.30
2023-01-13T10:06:59.434Z,68.22
2023-01-13T10:08:05.999Z,68.19
2023-01-13T10:09:15.311Z,68.23
2023-01-13T10:10:38.725Z,68.12
2023-01-13T10:12:02.567Z,68.23
2023-01-13T10:13:19.509Z,68.18
2023-01-13T10:14:26.173Z,68.28
2023-01-13T10:15:29.253Z,68.17
2023-01-13T10:16:47.498Z,68.14
2023-01-13T10:17:57.123Z,68.16
2023-01-13T10:19:15.995Z,68.15
2023-01-13T10:20:22.244Z,68.20
2023-01-13T10:21:44.190Z,68.09
2023-01-13T10:23:16.211Z,68.09
2023-01-13T10:24:39.427Z,68.01
2023-01-13T10:26:10.153Z,67.93
2023-01-13T10:27:26.159Z,68.04
2023-01-13T10:28:29.206Z,68.04
2023-01-13T10:29:34.025Z,67.91
2023-01-13T10:30:43.278Z,67.94
2023-01-13T10:31:46.361Z,67.94
2023-01-13T10:32:55.744Z,67.90
2023-01-13T10:34:01.115Z,67.87
2023-01-13T10:35:05.120Z,67.87
2023-01-13T10:36:22.405Z,67.75
2023-01-13T10:37:27.754Z,67.85
2023-01-13T10:38:39.665Z,67.73
2023-01-13T10:39:45.400Z,67.79
2023-01-13T10:40:54.519Z,67.69
2023-01-13T10:42:02.540Z,67.66
2023-01-13T10:43:06.023Z,67.70
2023-01-13T10:44:17.092Z,67.61
2023-01-13T10:45:25.311Z,67.59
2023-01-13T10:46:30.196Z,67.52
2023-01-13T10:47:35.906Z,67.48
2023-01-13T10:48:43.557Z,67.51
2023-01-13T14:06:07.104Z,76.37
2023-01-13T14:07:21.099Z,76.01
2023-01-13T14:08:25.734Z,75.84
2023-01-13T14:10:45.209Z,75.68
2023-01-13T14:11:57.610Z,75.46
2023-01-13T14:13:03.356Z,75.52
2023-01-13T14:14:16.310Z,75.40
2023-01-13T14:15:32.107Z,75.45
2023-01-13T14:16:37.749Z,75.22
2023-01-13T14:17:40.879Z,75.19
2023-01-13T14:18:47.815Z,75.23
2023-01-13T14:19:54.531Z,75.08
2023-01-13T14:21:04.211Z,75.06
2023-01-13T14:22:10.837Z,75.07
2023-01-13T14:23:17.442Z,75.12
2023-01-13T14:24:21.883Z,75.04
2023-01-13T14:25:31.686Z,74.89
2023-01-13T14:26:34.645Z,74.81
2023-01-13T14:27:41.187Z,74.70
2023-01-13T14:28:44.482Z,74.63
2023-01-13T14:29:47.712Z,74.59
2023-01-13T14:30:51.667Z,74.53
2023-01-13T14:31:54.976Z,74.57
2023-01-13T14:32:59.248Z,74.52
2023-01-13T14:34:31.909Z,74.44
2023-01-13T14:35:11.300Z,74.39
2023-01-13T14:36:23.507Z,74.18
2023-01-13T14:37:39.077Z,74.21
2023-01-13T14:38:45.025Z,74.16
2023-01-13T14:39:48.158Z,74.10
2023-01-13T14:40:51.062Z,73.88
2023-01-13T14:41:54.242Z,73.92
2023-01-13T14:43:02.013Z,73.86
2023-01-13T14:44:14.841Z,73.70
2023-01-13T14:45:24.710Z,73.62
2023-01-13T14:46:41.840Z,73.46
2023-01-13T14:47:48.401Z,73.49
2023-01-13T14:48:55.293Z,73.42
2023-01-13T14:50:08.199Z,73.44
2023-01-13T14:51:13.614Z,73.37
2023-01-13T14:52:23.217Z,73.47
2023-01-13T14:53:32.530Z,73.34
2023-01-13T14:54:39.176Z,73.34
2023-01-13T14:55:42.549Z,73.23
2023-01-13T14:56:50.927Z,73.13
2023-01-13T14:58:14.279Z,72.97
2023-01-13T14:59:43.063Z,72.92
2023-01-13T15:00:46.232Z,72.77
2023-01-13T15:01:49.380Z,72.76
2023-01-13T15:03:01.888Z,72.87
2023-01-13T15:04:26.644Z,72.88
2023-01-13T15:05:32.856Z,72.76
2023-01-13T15:06:36.969Z,72.83
2023-01-13T15:07:40.083Z,72.72
2023-01-13T15:08:43.172Z,72.68
2023-01-13T15:09:46.424Z,72.74
2023-01-13T15:11:01.618Z,72.60
2023-01-13T15:13:39.512Z,72.65
2023-01-13T15:14:45.870Z,72.55
2023-01-13T15:15:55.211Z,72.55
2023-01-13T15:16:58.641Z,72.63
2023-01-13T15:18:04.573Z,72.49
2023-01-13T15:19:09.718Z,72.47
2023-01-13T15:20:14.059Z,72.46
2023-01-13T15:21:17.723Z,72.47
2023-01-13T15:22:20.824Z,72.46
2023-01-13T15:23:24.092Z,72.40
2023-01-13T15:24:27.128Z,72.42
2023-01-13T15:25:34.627Z,72.43
2023-01-13T15:26:37.812Z,72.31
2023-01-13T15:27:42.662Z,72.33
2023-01-13T15:28:45.880Z,72.29
2023-01-13T15:29:49.034Z,72.17
2023-01-13T15:30:53.913Z,72.20
2023-01-13T15:31:57.130Z,72.14
2023-01-13T15:33:00.381Z,72.25
2023-01-13T15:34:03.364Z,72.24
2023-01-13T15:35:07.358Z,72.21
2023-01-13T15:36:31.431Z,72.19
2023-01-13T15:37:35.000Z,72.09
2023-01-13T15:38:38.242Z,72.20
2023-01-13T15:39:41.454Z,72.10
2023-01-13T15:40:44.716Z,72.05
2023-01-13T15:42:05.955Z,72.09
2023-01-13T15:43:32.967Z,71.97
2023-01-13T15:44:54.525Z,71.98
2023-01-13T15:46:16.034Z,71.95
2023-01-13T15:47:21.408Z,72.00
2023-01-13T15:48:27.362Z,71.85
2023-01-13T15:49:40.162Z,71.78
2023-01-13T15:50:43.286Z,71.87
2023-01-13T15:51:49.445Z,71.76
2023-01-13T15:52:52.592Z,71.72
2023-01-13T15:53:58.055Z,71.70
2023-01-13T15:55:02.210Z,71.78
2023-01-13T15:56:14.987Z,71.78
2023-01-13T15:57:27.205Z,71.71
2023-01-13T15:58:31.607Z,71.57
2023-01-13T15:59:34.703Z,71.59
2023-01-13T16:00:37.819Z,71.69
2023-01-13T16:01:41.313Z,71.58
2023-01-13T16:02:44.557Z,71.66
2023-01-13T16:03:47.688Z,71.58
2023-01-13T16:04:53.033Z,71.58
2023-01-13T16:05:56.243Z,71.64
2023-01-13T16:06:59.515Z,71.68
2023-01-13T16:08:02.681Z,71.68
2023-01-13T16:09:05.973Z,71.56
2023-01-13T16:10:18.976Z,71.48
2023-01-13T16:11:22.055Z,71.60
2023-01-13T16:12:25.041Z,71.55
2023-01-13T16:13:28.189Z,71.35
2023-01-13T16:14:31.473Z,71.43
2023-01-13T16:15:34.551Z,71.35
2023-01-13T16:16:37.819Z,71.38
2023-01-13T16:17:42.923Z,71.38
2023-01-13T16:18:46.122Z,71.34
2023-01-13T16:19:49.102Z,71.49
2023-01-13T16:20:54.473Z,71.37
2023-01-13T16:21:59.182Z,71.49
2023-01-13T16:23:02.166Z,71.41
2023-01-13T16:24:05.301Z,71.46
2023-01-13T16:25:17.786Z,71.42
2023-01-13T16:26:24.277Z,71.43
2023-01-13T16:27:27.452Z,71.41
2023-01-13T16:28:30.406Z,71.36
2023-01-13T16:29:33.652Z,71.32
2023-01-13T16:30:37.139Z,71.34
2023-01-13T16:31:40.424Z,71.34
2023-01-13T16:32:43.625Z,71.50
2023-01-13T16:33:46.806Z,71.51
2023-01-13T16:34:49.880Z,71.42
2023-01-13T16:36:09.456Z,71.35
2023-01-13T16:41:54.064Z,71.49
2023-01-13T16:42:57.330Z,71.61
2023-01-13T16:44:02.234Z,71.67
2023-01-13T16:45:08.336Z,71.73
2023-01-13T16:46:26.656Z,71.90
2023-01-13T16:47:29.871Z,71.76
2023-01-13T16:48:32.992Z,71.76
2023-01-13T16:49:35.943Z,71.71
2023-01-13T16:50:41.917Z,71.80
2023-01-13T16:51:45.098Z,71.78
2023-01-13T16:52:48.389Z,71.77
2023-01-13T16:53:51.772Z,71.82
2023-01-13T16:54:54.959Z,71.72
2023-01-13T16:55:58.279Z,71.76
2023-01-13T16:57:01.567Z,71.75
2023-01-13T16:58:05.424Z,71.80
2023-01-13T16:59:11.750Z,71.82
2023-01-13T17:00:15.851Z,71.79
2023-01-13T17:01:25.484Z,71.80
2023-01-13T17:02:28.687Z,71.89
2023-01-13T17:03:33.682Z,71.79
2023-01-13T17:04:36.849Z,71.76
2023-01-13T17:05:40.974Z,71.78
2023-01-13T17:08:33.814Z,71.91
2023-01-13T17:09:36.857Z,71.75
2023-01-13T17:10:40.053Z,71.89
2023-01-13T17:11:43.237Z,71.78
2023-01-13T17:12:46.443Z,71.75
2023-01-13T17:13:49.630Z,71.73
2023-01-13T17:14:52.820Z,71.77
2023-01-13T17:15:55.960Z,71.86
2023-01-13T17:16:59.006Z,71.82
2023-01-13T17:18:02.799Z,71.82
2023-01-13T17:19:05.877Z,71.96
2023-01-13T17:20:14.841Z,71.85
2023-01-13T17:21:18.238Z,71.80
2023-01-13T17:22:22.063Z,71.73
2023-01-13T17:23:25.170Z,71.86
2023-01-13T17:24:30.144Z,71.75
2023-01-13T17:25:33.288Z,71.88
2023-01-13T17:26:41.123Z,71.79
2023-01-13T17:27:44.347Z,71.86
2023-01-13T17:28:47.541Z,71.82
2023-01-13T17:29:50.703Z,71.93
2023-01-13T17:30:54.195Z,71.92
2023-01-13T17:31:57.395Z,71.85
2023-01-13T17:33:00.483Z,71.85
2023-01-13T17:34:04.444Z,71.83
2023-01-13T17:35:08.415Z,71.83
2023-01-13T17:36:11.901Z,71.99
2023-01-13T17:37:15.540Z,71.92
2023-01-13T17:38:18.719Z,71.90
2023-01-13T17:39:24.626Z,71.91
2023-01-13T17:40:27.856Z,71.94
2023-01-13T17:41:31.169Z,71.97
2023-01-13T17:42:34.433Z,71.99
2023-01-13T17:43:37.589Z,72.04
2023-01-13T17:44:40.871Z,72.16
2023-01-13T17:45:44.079Z,72.12
2023-01-13T17:46:48.338Z,72.12
2023-01-13T17:48:00.003Z,72.18
2023-01-13T17:49:03.155Z,72.21
2023-01-13T17:50:06.745Z,72.28
2023-01-13T17:51:12.586Z,72.13
2023-01-13T17:52:15.658Z,72.12
2023-01-13T17:53:19.471Z,72.12
2023-01-13T17:54:22.935Z,72.11
2023-01-13T17:55:25.960Z,72.10